createdAt,value
2018-01-18T00:01:31.442Z,99525.49
2018-01-18T00:03:58.829Z,99521.06
2018-01-18T00:06:26.244Z,99513.16
2018-01-18T00:08:53.648Z,99511.78
2018-01-18T00:11:21.038Z,99508.80
2018-01-18T00:13:48.433Z,99493.61
2018-01-18T00:16:15.819Z,99488.02
2018-01-18T00:18:43.210Z,99496.77
2018-01-18T00:21:10.594Z,99495.44
2018-01-18T00:23:37.986Z,99495.06
2018-01-18T00:26:05.366Z,99497.89
2018-01-18T00:28:32.792Z,99497.84
2018-01-18T00:31:00.191Z,99482.67
2018-01-18T00:33:27.592Z,99489.09
2018-01-18T00:35:55.007Z,99488.45
2018-01-18T00:38:22.405Z,99471.12
2018-01-18T00:40:49.869Z,99477.94
2018-01-18T00:43:17.255Z,99476.28
2018-01-18T00:45:44.667Z,99473.96
2018-01-18T00:48:12.064Z,99471.22
2018-01-18T00:50:39.455Z,99472.12
2018-01-18T00:53:06.859Z,99459.12
2018-01-18T00:55:34.249Z,99458.10
2018-01-18T00:58:01.663Z,99464.16
2018-01-18T01:00:29.087Z,99460.37
2018-01-18T01:02:56.486Z,99452.69
2018-01-18T01:05:23.890Z,99437.26
2018-01-18T01:07:51.307Z,99445.61
2018-01-18T01:10:18.703Z,99442.85
2018-01-18T01:12:46.101Z,99440.95
2018-01-18T01:15:13.494Z,99438.98
2018-01-18T01:17:40.878Z,99431.86
2018-01-18T01:20:08.271Z,99441.23
2018-01-18T01:22:35.663Z,99425.03
2018-01-18T01:25:03.059Z,99432.75
2018-01-18T01:27:30.977Z,99431.02
2018-01-18T01:29:59.051Z,99427.33
2018-01-18T01:32:26.438Z,99425.67
2018-01-18T01:34:53.839Z,99417.19
2018-01-18T01:37:21.244Z,99410.44
2018-01-18T01:39:48.676Z,99406.83
2018-01-18T01:42:16.054Z,99403.88
2018-01-18T01:44:43.450Z,99410.23
2018-01-18T01:47:10.890Z,99394.44
2018-01-18T01:49:38.296Z,99389.22
2018-01-18T01:52:05.695Z,99395.20
2018-01-18T01:54:33.083Z,99392.91
2018-01-18T01:57:01.127Z,99390.05
2018-01-18T01:59:28.524Z,99386.30
2018-01-18T02:01:55.935Z,99381.86
2018-01-18T02:04:23.330Z,99384.00
2018-01-18T02:06:50.719Z,99379.26
2018-01-18T02:09:18.106Z,99377.47
2018-01-18T02:11:45.493Z,99371.59
2018-01-18T02:14:12.896Z,99374.98
2018-01-18T02:16:40.990Z,99374.58
2018-01-18T02:19:08.386Z,99369.89
2018-01-18T02:21:35.769Z,99358.38
2018-01-18T02:24:03.222Z,99351.34
2018-01-18T02:26:30.606Z,99347.33
2018-01-18T02:28:58.005Z,99339.55
2018-01-18T02:31:25.402Z,99335.36
2018-01-18T02:33:52.804Z,99330.84
2018-01-18T02:36:20.178Z,99317.89
2018-01-18T02:38:47.591Z,99307.67
2018-01-18T02:41:14.987Z,99300.77
2018-01-18T02:43:42.410Z,99294.41
2018-01-18T02:46:09.794Z,99297.13
2018-01-18T02:48:37.203Z,99303.31
2018-01-18T02:51:04.579Z,99307.59
2018-01-18T02:53:31.983Z,99300.50
2018-01-18T02:55:59.383Z,99306.93
2018-01-18T02:58:26.794Z,99315.53
2018-01-18T03:00:54.190Z,99309.84
2018-01-18T03:03:21.566Z,99303.20
2018-01-18T03:05:48.957Z,99293.06
2018-01-18T03:08:16.343Z,99286.05
2018-01-18T03:10:43.742Z,99274.69
2018-01-18T03:13:11.139Z,99259.48
2018-01-18T03:15:38.532Z,99225.98
2018-01-18T03:18:05.929Z,99226.76
2018-01-18T03:20:33.400Z,99222.77
2018-01-18T03:23:00.779Z,99222.64
2018-01-18T03:25:28.199Z,99218.95
2018-01-18T03:27:55.586Z,99215.78
2018-01-18T03:30:23.015Z,99214.73
2018-01-18T03:32:50.382Z,99196.28
2018-01-18T03:35:17.798Z,99190.65
2018-01-18T03:37:45.202Z,99202.38
2018-01-18T03:40:12.602Z,99177.29
2018-01-18T03:42:39.995Z,99153.23
2018-01-18T03:45:07.406Z,99149.98
2018-01-18T03:47:34.820Z,99154.50
2018-01-18T03:50:02.255Z,99153.70
2018-01-18T03:52:29.647Z,99145.94
2018-01-18T03:54:57.074Z,99140.88
2018-01-18T03:57:24.466Z,99122.13
2018-01-18T03:59:51.898Z,99116.97
2018-01-18T04:02:19.286Z,99111.39
2018-01-18T04:04:46.727Z,99110.78
2018-01-18T04:07:14.133Z,99100.28
2018-01-18T04:09:41.528Z,99093.86
2018-01-18T04:12:08.911Z,99082.72
2018-01-18T04:14:36.315Z,99082.25
2018-01-18T04:17:03.700Z,99074.47
2018-01-18T04:19:31.111Z,99075.75
2018-01-18T04:21:58.526Z,99059.33
2018-01-18T04:24:25.919Z,99044.02
2018-01-18T04:26:53.310Z,99036.50
2018-01-18T04:29:20.724Z,99029.37
2018-01-18T04:31:48.105Z,99017.66
2018-01-18T04:34:15.498Z,99007.58
2018-01-18T04:36:42.894Z,98997.80
2018-01-18T04:39:10.296Z,98981.17
2018-01-18T04:41:37.714Z,98970.25
2018-01-18T04:44:05.158Z,98970.67
2018-01-18T04:46:32.578Z,98954.56
2018-01-18T04:48:59.952Z,98951.59
2018-01-18T04:51:28.078Z,98943.64
2018-01-18T04:53:55.472Z,98944.80
2018-01-18T04:56:23.004Z,98930.64
2018-01-18T04:58:50.410Z,98928.52
2018-01-18T05:01:17.808Z,98923.45
2018-01-18T05:03:45.190Z,98924.17
2018-01-18T05:06:12.670Z,98912.09
2018-01-18T05:08:40.064Z,98908.58
2018-01-18T05:11:07.451Z,98896.03
2018-01-18T05:13:34.859Z,98889.77
2018-01-18T05:16:02.272Z,98879.36
2018-01-18T05:18:29.645Z,98868.13
2018-01-18T05:20:57.035Z,98848.34
2018-01-18T05:23:24.433Z,98849.07
2018-01-18T05:25:51.855Z,98842.42
2018-01-18T05:28:19.458Z,98835.81
2018-01-18T05:30:46.957Z,98815.19
2018-01-18T05:33:14.359Z,98797.94
2018-01-18T05:35:41.775Z,98771.18
2018-01-18T05:38:09.175Z,98763.99
2018-01-18T05:40:36.603Z,98744.91
2018-01-18T05:43:03.999Z,98729.94
2018-01-18T05:45:31.410Z,98705.60
2018-01-18T05:47:58.794Z,98681.20
2018-01-18T05:50:26.198Z,98666.46
2018-01-18T05:52:53.613Z,98652.90
2018-01-18T05:55:21.000Z,98635.81
2018-01-18T05:57:48.398Z,98616.70
2018-01-18T06:00:15.814Z,98613.27
2018-01-18T06:02:43.270Z,98598.42
2018-01-18T06:05:10.642Z,98593.63
2018-01-18T06:07:38.050Z,98581.73
2018-01-18T06:10:05.463Z,98570.34
2018-01-18T06:12:32.855Z,98558.95
2018-01-18T06:15:00.250Z,98542.67
2018-01-18T06:17:27.654Z,98537.42
2018-01-18T06:19:55.142Z,98537.54
2018-01-18T06:22:22.525Z,98523.59
2018-01-18T06:24:49.923Z,98510.13
2018-01-18T06:27:17.310Z,98501.36
2018-01-18T06:29:44.703Z,98484.77
2018-01-18T06:32:12.091Z,98469.31
2018-01-18T06:34:39.485Z,98457.60
2018-01-18T06:37:06.870Z,98439.45
2018-01-18T06:39:34.363Z,98432.31
2018-01-18T06:42:01.756Z,98419.70
2018-01-18T06:44:29.186Z,98393.89
2018-01-18T06:46:56.654Z,98365.03
2018-01-18T06:49:24.030Z,98342.81
2018-01-18T06:51:51.410Z,98325.77
2018-01-18T06:54:18.828Z,98321.83
2018-01-18T06:56:46.241Z,98305.38
2018-01-18T06:59:13.650Z,98299.58
2018-01-18T07:01:41.055Z,98276.13
2018-01-18T07:04:08.436Z,98259.33
2018-01-18T07:06:35.826Z,98243.63
2018-01-18T07:09:03.214Z,98226.30
2018-01-18T07:11:30.602Z,98222.01
2018-01-18T07:13:57.998Z,98206.63
2018-01-18T07:16:25.386Z,98183.30
2018-01-18T07:18:52.803Z,98160.17
2018-01-18T07:21:20.195Z,98136.06
2018-01-18T07:23:47.600Z,98114.80
2018-01-18T07:26:15.020Z,98094.82
2018-01-18T07:28:42.411Z,98067.63
2018-01-18T07:31:09.798Z,98043.11
2018-01-18T07:33:37.206Z,98021.10
2018-01-18T07:36:04.602Z,98010.33
2018-01-18T07:38:31.994Z,98008.23
2018-01-18T07:40:59.387Z,97997.80
2018-01-18T07:43:26.794Z,97988.78
2018-01-18T07:45:54.191Z,97980.44
2018-01-18T07:48:21.575Z,97971.13
2018-01-18T07:50:49.030Z,97988.67
2018-01-18T07:53:16.431Z,97987.64
2018-01-18T07:55:43.827Z,97963.41
2018-01-18T07:58:11.225Z,97948.23
2018-01-18T08:00:38.652Z,97930.97
2018-01-18T08:03:11.538Z,97916.42
2018-01-18T08:05:38.946Z,97883.36
2018-01-18T08:08:06.326Z,97862.61
2018-01-18T08:10:33.719Z,97855.69
2018-01-18T08:13:01.110Z,97868.38
2018-01-18T08:15:28.498Z,97872.16
2018-01-18T08:17:55.884Z,97845.91
2018-01-18T08:20:23.273Z,97844.06
2018-01-18T08:22:50.657Z,97832.39
2018-01-18T08:25:18.055Z,97812.36
2018-01-18T08:27:45.465Z,97803.32
2018-01-18T08:30:12.850Z,97782.67
2018-01-18T08:32:40.343Z,97785.95
2018-01-18T08:35:07.735Z,97773.77
2018-01-18T08:37:35.122Z,97755.88
2018-01-18T08:40:02.499Z,97729.11
2018-01-18T08:42:29.919Z,97712.52
2018-01-18T08:44:57.327Z,97693.58
2018-01-18T08:47:24.739Z,97687.83
2018-01-18T08:49:52.124Z,97678.30
2018-01-18T08:52:19.511Z,97653.27
2018-01-18T08:54:46.938Z,97645.78
2018-01-18T08:57:14.342Z,97645.29
2018-01-18T08:59:41.730Z,97628.31
2018-01-18T09:02:09.133Z,97602.90
2018-01-18T09:04:36.511Z,97588.00
2018-01-18T09:07:03.900Z,97581.50
2018-01-18T09:09:31.274Z,97588.14
2018-01-18T09:11:58.673Z,97564.08
2018-01-18T09:14:26.046Z,97561.54
2018-01-18T09:16:53.437Z,97543.75
2018-01-18T09:19:20.837Z,97512.16
2018-01-18T09:21:48.231Z,97516.99
2018-01-18T09:24:15.616Z,97504.16
2018-01-18T09:26:43.019Z,97446.14
2018-01-18T09:29:10.480Z,97448.72
2018-01-18T09:31:37.826Z,97441.62
2018-01-18T09:34:05.278Z,97454.58
2018-01-18T09:36:32.613Z,97447.91
2018-01-18T09:39:00.001Z,97440.63
2018-01-18T09:41:27.381Z,97434.77
2018-01-18T09:43:54.774Z,97408.11
2018-01-18T09:46:22.155Z,97402.66
2018-01-18T09:48:49.558Z,97392.87
2018-01-18T09:51:16.963Z,97381.77
2018-01-18T09:53:44.351Z,97375.06
2018-01-18T09:56:11.736Z,97376.92
2018-01-18T09:58:39.126Z,97362.07
2018-01-18T10:01:06.522Z,97355.05
2018-01-18T10:03:33.906Z,97338.05
2018-01-18T10:06:01.306Z,97334.31
2018-01-18T10:08:28.694Z,97327.60
2018-01-18T10:10:56.118Z,97301.59
2018-01-18T10:13:23.519Z,97308.45
2018-01-18T10:15:50.906Z,97300.16
2018-01-18T10:18:18.299Z,97299.46
2018-01-18T10:20:45.683Z,97290.09
2018-01-18T10:23:13.074Z,97283.42
2018-01-18T10:25:40.479Z,97287.39
2018-01-18T10:28:07.870Z,97287.01
2018-01-18T10:30:35.263Z,97286.19
2018-01-18T10:33:02.659Z,97293.49
2018-01-18T10:35:30.049Z,97314.23
2018-01-18T10:37:57.442Z,97268.59
2018-01-18T10:40:24.835Z,97283.29
2018-01-18T10:42:52.227Z,97282.66
2018-01-18T10:45:19.602Z,97278.09
2018-01-18T10:47:47.063Z,97257.33
2018-01-18T10:50:14.463Z,97240.51
2018-01-18T10:52:41.870Z,97225.20
2018-01-18T10:55:09.246Z,97209.44
2018-01-18T10:57:36.629Z,97210.70
2018-01-18T11:00:04.023Z,97213.44
2018-01-18T11:02:31.517Z,97211.08
2018-01-18T11:04:58.894Z,97205.60
2018-01-18T11:07:26.842Z,97199.05
2018-01-18T11:09:54.281Z,97203.95
2018-01-18T11:12:21.663Z,97202.58
2018-01-18T11:14:49.051Z,97193.39
2018-01-18T11:17:16.543Z,97197.56
2018-01-18T11:19:44.005Z,97226.25
2018-01-18T11:22:11.788Z,97209.14
2018-01-18T11:24:39.172Z,97194.35
2018-01-18T11:27:06.584Z,97192.10
2018-01-18T11:29:33.983Z,97193.64
2018-01-18T11:32:01.380Z,97196.63
2018-01-18T11:34:28.770Z,97185.77
2018-01-18T11:36:56.154Z,97195.05
2018-01-18T11:39:23.538Z,97189.39
2018-01-18T11:41:50.933Z,97219.06
2018-01-18T11:44:18.335Z,97206.59
2018-01-18T11:46:45.882Z,97202.92
2018-01-18T11:49:13.264Z,97212.04
2018-01-18T11:51:40.679Z,97202.05
2018-01-18T11:54:08.062Z,97207.30
2018-01-18T11:56:35.466Z,97217.94
2018-01-18T11:59:02.855Z,97213.84
2018-01-18T12:01:30.261Z,97209.07
2018-01-18T12:03:57.647Z,97200.70
2018-01-18T12:06:25.039Z,97209.48
2018-01-18T12:08:52.419Z,97213.54
2018-01-18T12:11:19.838Z,97219.48
2018-01-18T12:13:47.235Z,97216.38
2018-01-18T12:16:14.623Z,97218.34
2018-01-18T12:18:42.010Z,97225.09
2018-01-18T12:21:09.399Z,97223.79
2018-01-18T12:23:36.790Z,97226.30
2018-01-18T12:26:04.190Z,97223.22
2018-01-18T12:28:31.578Z,97220.85
2018-01-18T12:30:58.961Z,97215.77
2018-01-18T12:33:26.852Z,97227.09
2018-01-18T12:35:54.210Z,97236.41
2018-01-18T12:38:21.630Z,97243.42
2018-01-18T12:40:49.010Z,97247.87
2018-01-18T12:43:16.428Z,97248.41
2018-01-18T12:45:44.106Z,97255.21
2018-01-18T12:48:11.506Z,97249.14
2018-01-18T12:50:38.886Z,97257.37
2018-01-18T12:53:06.291Z,97255.45
2018-01-18T12:55:33.650Z,97267.09
2018-01-18T12:58:01.068Z,97265.34
2018-01-18T13:00:28.439Z,97277.21
2018-01-18T13:02:55.850Z,97281.28
2018-01-18T13:05:23.311Z,97293.52
2018-01-18T13:07:50.702Z,97297.50
2018-01-18T13:10:18.087Z,97296.30
2018-01-18T13:12:45.506Z,97306.36
2018-01-18T13:15:12.886Z,97310.53
2018-01-18T13:17:40.280Z,97315.55
2018-01-18T13:20:07.727Z,97334.04
2018-01-18T13:22:35.120Z,97330.11
2018-01-18T13:25:02.497Z,97355.98
2018-01-18T13:27:29.885Z,97349.64
2018-01-18T13:29:57.266Z,97363.79
2018-01-18T13:32:24.658Z,97374.32
2018-01-18T13:34:52.036Z,97394.94
2018-01-18T13:37:19.442Z,97410.70
2018-01-18T13:39:46.818Z,97430.33
2018-01-18T13:42:14.238Z,97441.85
2018-01-18T13:44:41.732Z,97462.58
2018-01-18T13:47:09.119Z,97485.97
2018-01-18T13:49:36.510Z,97482.41
2018-01-18T13:52:03.990Z,97549.28
2018-01-18T13:54:31.378Z,97582.34
2018-01-18T13:56:58.789Z,97632.11
2018-01-18T13:59:26.176Z,97679.28
2018-01-18T14:01:53.555Z,97710.37
2018-01-18T14:04:20.941Z,97762.52
2018-01-18T14:06:48.334Z,97787.36
2018-01-18T14:09:15.714Z,97812.55
2018-01-18T14:11:43.095Z,97855.34
2018-01-18T14:14:10.478Z,97886.56
2018-01-18T14:16:37.867Z,97904.89
2018-01-18T14:19:05.491Z,97938.31
2018-01-18T14:21:32.878Z,97959.78
2018-01-18T14:24:00.272Z,97996.19
2018-01-18T14:26:27.687Z,98011.42
2018-01-18T14:28:55.075Z,98022.13
2018-01-18T14:31:22.467Z,98041.98
2018-01-18T14:33:49.858Z,98064.41
2018-01-18T14:36:17.262Z,98086.15
2018-01-18T14:38:44.663Z,98105.28
2018-01-18T14:41:12.052Z,98140.35
2018-01-18T14:43:39.476Z,98160.37
2018-01-18T14:46:06.858Z,98178.17
2018-01-18T14:48:34.278Z,98204.78
2018-01-18T14:51:01.718Z,98222.64
2018-01-18T14:53:29.111Z,98249.89
2018-01-18T14:55:56.494Z,98278.91
2018-01-18T14:58:23.869Z,98272.98
2018-01-18T15:00:51.338Z,98308.22
2018-01-18T15:03:18.733Z,98333.15
2018-01-18T15:05:46.131Z,98336.02
2018-01-18T15:08:13.509Z,98369.89
2018-01-18T15:10:40.892Z,98381.83
2018-01-18T15:13:08.276Z,98388.05
2018-01-18T15:15:35.649Z,98437.39
2018-01-18T15:18:03.049Z,98432.98
2018-01-18T15:20:30.422Z,98463.43
2018-01-18T15:22:57.805Z,98473.95
2018-01-18T15:25:25.257Z,98477.21
2018-01-18T15:27:52.688Z,98496.33
2018-01-18T15:30:20.062Z,98516.72
2018-01-18T15:32:47.442Z,98542.03
2018-01-18T15:35:14.834Z,98543.48
2018-01-18T15:37:42.227Z,98568.72
2018-01-18T15:40:09.614Z,98586.41
2018-01-18T15:42:37.023Z,98594.92
2018-01-18T15:45:04.393Z,98617.38
2018-01-18T15:47:31.810Z,98636.30
2018-01-18T15:49:59.553Z,98649.75
2018-01-18T15:52:26.950Z,98646.19
2018-01-18T15:54:54.461Z,98670.19
2018-01-18T15:57:21.846Z,98674.04
2018-01-18T15:59:49.234Z,98693.17
2018-01-18T16:02:16.632Z,98697.64
2018-01-18T16:04:44.021Z,98718.78
2018-01-18T16:07:11.403Z,98723.94
2018-01-18T16:09:38.797Z,98745.70
2018-01-18T16:12:06.305Z,98749.83
2018-01-18T16:14:33.684Z,98766.43
2018-01-18T16:17:01.065Z,98774.06
2018-01-18T16:19:30.602Z,98783.66
2018-01-18T16:21:57.991Z,98786.27
2018-01-18T16:24:25.397Z,98800.70
2018-01-18T16:26:52.799Z,98808.86
2018-01-18T16:29:20.191Z,98808.75
2018-01-18T16:31:47.566Z,98823.19
2018-01-18T16:34:14.999Z,98831.20
2018-01-18T16:36:42.379Z,98834.14
2018-01-18T16:39:09.766Z,98842.83
2018-01-18T16:41:37.142Z,98850.72
2018-01-18T16:44:04.599Z,98856.08
2018-01-18T16:46:31.979Z,98861.64
2018-01-18T16:48:59.376Z,98863.02
2018-01-18T16:51:26.781Z,98871.39
2018-01-18T16:53:54.167Z,98874.02
2018-01-18T16:56:21.550Z,98878.00
2018-01-18T16:58:48.950Z,98892.72
2018-01-18T17:01:16.391Z,98893.13
2018-01-18T17:03:43.781Z,98900.08
2018-01-18T17:06:11.162Z,98911.66
2018-01-18T17:08:38.545Z,98910.50
2018-01-18T17:11:05.958Z,98920.21
2018-01-18T17:13:33.362Z,98916.27
2018-01-18T17:16:00.746Z,98925.02
2018-01-18T17:18:28.131Z,98931.52
2018-01-18T17:20:55.531Z,98941.25
2018-01-18T17:23:22.939Z,98934.93
2018-01-18T17:25:50.331Z,98935.59
2018-01-18T17:28:17.711Z,98939.98
2018-01-18T17:30:45.099Z,98946.80
2018-01-18T17:33:12.514Z,98951.25
2018-01-18T17:35:39.898Z,98955.45
2018-01-18T17:38:07.325Z,98955.59
2018-01-18T17:40:34.710Z,98961.73
2018-01-18T17:43:02.099Z,98974.43
2018-01-18T17:45:29.496Z,98966.16
2018-01-18T17:47:56.875Z,98972.17
2018-01-18T17:50:24.259Z,98976.03
2018-01-18T17:52:51.663Z,98982.02
2018-01-18T17:55:19.051Z,98980.17
2018-01-18T17:57:46.510Z,98984.08
2018-01-18T18:00:13.926Z,98982.88
2018-01-18T18:02:41.326Z,98982.02
2018-01-18T18:05:08.713Z,98981.81
2018-01-18T18:07:36.101Z,98992.73
2018-01-18T18:10:03.507Z,98987.67
2018-01-18T18:12:30.882Z,98989.24
2018-01-18T18:14:58.276Z,98994.61
2018-01-18T18:17:25.653Z,98997.09
2018-01-18T18:19:53.037Z,99006.95
2018-01-18T18:22:20.418Z,99011.55
2018-01-18T18:24:48.088Z,99014.00
2018-01-18T18:27:15.462Z,99020.66
2018-01-18T18:29:42.881Z,99027.24
2018-01-18T18:32:10.295Z,99028.49
2018-01-18T18:34:37.686Z,99030.64
2018-01-18T18:37:05.068Z,99033.67
2018-01-18T18:39:32.472Z,99033.28
2018-01-18T18:41:59.843Z,99035.92
2018-01-18T18:44:27.364Z,99040.41
2018-01-18T18:46:54.729Z,99040.58
2018-01-18T18:49:22.120Z,99054.75
2018-01-18T18:51:49.587Z,99042.02
2018-01-18T18:54:17.035Z,99049.68
2018-01-18T18:56:44.420Z,99049.70
2018-01-18T18:59:11.824Z,99052.09
2018-01-18T19:01:39.217Z,99062.86
2018-01-18T19:04:06.598Z,99061.92
2018-01-18T19:06:33.999Z,99056.31
2018-01-18T19:09:01.402Z,99062.52
2018-01-18T19:11:28.792Z,99070.86
2018-01-18T19:13:56.180Z,99067.96
2018-01-18T19:16:23.561Z,99077.61
2018-01-18T19:18:50.947Z,99084.42
2018-01-18T19:21:18.326Z,99086.66
2018-01-18T19:23:45.714Z,99093.80
2018-01-18T19:26:13.102Z,99094.04
2018-01-18T19:28:40.486Z,99094.38
2018-01-18T19:31:07.903Z,99097.74
2018-01-18T19:33:35.315Z,99099.84
2018-01-18T19:36:02.708Z,99102.08
2018-01-18T19:38:30.089Z,99115.77
2018-01-18T19:40:57.476Z,99110.91
2018-01-18T19:43:24.891Z,99103.72
2018-01-18T19:45:52.282Z,99111.67
2018-01-18T19:48:19.671Z,99112.54
2018-01-18T19:50:47.050Z,99116.09
2018-01-18T19:53:14.435Z,99116.64
2018-01-18T19:55:41.839Z,99125.54
2018-01-18T19:58:09.240Z,99132.74
2018-01-18T20:00:36.630Z,99125.23
2018-01-18T20:03:04.013Z,99132.41
2018-01-18T20:05:31.407Z,99131.39
2018-01-18T20:07:58.791Z,99137.27
2018-01-18T20:10:26.174Z,99140.26
2018-01-18T20:12:53.744Z,99149.50
2018-01-18T20:15:21.125Z,99151.47
2018-01-18T20:17:48.534Z,99151.77
2018-01-18T20:20:15.928Z,99152.27
2018-01-18T20:22:43.370Z,99158.70
2018-01-18T20:25:10.762Z,99165.75
2018-01-18T20:27:38.164Z,99168.08
2018-01-18T20:30:05.555Z,99168.97
2018-01-18T20:32:32.938Z,99171.50
2018-01-18T20:35:00.333Z,99171.98
2018-01-18T20:37:27.725Z,99179.34
2018-01-18T20:39:55.130Z,99184.61
2018-01-18T20:42:23.945Z,99192.08
2018-01-18T20:44:51.479Z,99194.98
2018-01-18T20:47:18.867Z,99197.59
2018-01-18T20:49:46.263Z,99192.73
2018-01-18T20:52:13.643Z,99203.05
2018-01-18T20:54:41.051Z,99195.47
2018-01-18T20:57:08.423Z,99200.72
2018-01-18T20:59:35.830Z,99201.20
2018-01-18T21:02:03.246Z,99200.75
2018-01-18T21:04:30.623Z,99199.01
2018-01-18T21:06:58.019Z,99196.76
2018-01-18T21:09:25.401Z,99202.92
2018-01-18T21:11:52.797Z,99200.49
2018-01-18T21:14:20.183Z,99214.14
2018-01-18T21:16:47.575Z,99212.52
2018-01-18T21:19:14.958Z,99222.20
2018-01-18T21:21:42.359Z,99228.66
2018-01-18T21:24:09.727Z,99229.53
2018-01-18T21:26:37.121Z,99228.77
2018-01-18T21:29:04.512Z,99229.89
2018-01-18T21:31:32.409Z,99233.45
2018-01-18T21:34:00.144Z,99240.63
2018-01-18T21:36:27.532Z,99237.06
2018-01-18T21:38:55.040Z,99239.16
2018-01-18T21:41:22.432Z,99242.84
2018-01-18T21:43:49.818Z,99250.61
2018-01-18T21:46:17.210Z,99249.02
2018-01-18T21:48:44.597Z,99242.54
2018-01-18T21:51:11.991Z,99245.25
2018-01-18T21:53:39.369Z,99252.61
2018-01-18T21:56:06.773Z,99256.82
2018-01-18T21:58:34.271Z,99258.06
2018-01-18T22:01:01.677Z,99261.02
2018-01-18T22:03:29.062Z,99266.02
2018-01-18T22:05:56.454Z,99261.87
2018-01-18T22:08:23.834Z,99263.84
2018-01-18T22:10:51.230Z,99270.81
2018-01-18T22:13:18.639Z,99269.55
2018-01-18T22:15:46.053Z,99267.72
2018-01-18T22:18:13.426Z,99265.90
2018-01-18T22:20:40.875Z,99270.21
2018-01-18T22:23:08.263Z,99269.06
2018-01-18T22:25:35.655Z,99266.25
2018-01-18T22:28:03.025Z,99272.86
2018-01-18T22:30:30.438Z,99279.03
2018-01-18T22:32:57.806Z,99283.72
2018-01-18T22:35:25.207Z,99278.94
2018-01-18T22:37:52.611Z,99285.45
2018-01-18T22:40:19.998Z,99283.61
2018-01-18T22:42:47.402Z,99289.80
2018-01-18T22:45:14.799Z,99294.84
2018-01-18T22:47:42.187Z,99296.86
2018-01-18T22:50:09.588Z,99296.61
2018-01-18T22:52:36.994Z,99294.59
2018-01-18T22:55:04.399Z,99299.47
2018-01-18T22:57:31.792Z,99303.85
2018-01-18T22:59:59.180Z,99299.57
2018-01-18T23:02:26.569Z,99297.31
2018-01-18T23:04:53.950Z,99294.81
2018-01-18T23:07:21.342Z,99297.94
2018-01-18T23:09:48.730Z,99311.20
2018-01-18T23:12:16.110Z,99312.41
2018-01-18T23:14:43.501Z,99309.77
2018-01-18T23:17:10.895Z,99311.16
2018-01-18T23:19:38.273Z,99313.22
2018-01-18T23:22:05.693Z,99314.55
2018-01-18T23:24:33.071Z,99314.78
2018-01-18T23:27:00.463Z,99321.71
2018-01-18T23:29:27.846Z,99318.94
2018-01-18T23:31:55.238Z,99318.89
2018-01-18T23:34:22.697Z,99320.25
2018-01-18T23:36:50.128Z,99326.33
2018-01-18T23:39:17.560Z,99324.59
2018-01-18T23:41:44.952Z,99322.27
2018-01-18T23:44:12.331Z,99330.95
2018-01-18T23:46:39.731Z,99330.05
2018-01-18T23:49:07.134Z,99339.67
2018-01-18T23:51:34.523Z,99335.72
2018-01-18T23:54:01.932Z,99340.83
2018-01-18T23:56:29.343Z,99341.22
2018-01-18T23:58:56.726Z,99344.67
